Time;durP1;ratioP1;P1;durP2;ratioP2;P2;SDS_P1;SDS_P2;PMS_P1;PMS_P2;Temp;Humidity;BMP_temperature;BMP_pressure;BME280_temperature;BME280_humidity;BME280_pressure;Samples;Min_cycle;Max_cycle;Signal;HPM_P1;HPM_P2
2021/10/28 00:14:17;;;;;;;;;;;9.10;1.00;;;;;;5049186;28;19915;-76
2021/10/28 00:16:44;;;;;;;;;;;9.20;1.00;;;;;;5049223;28;19909;-76
2021/10/28 00:19:09;;;;;;;;;;;9.20;1.00;;;;;;5048783;28;19913;-75
2021/10/28 00:21:36;;;;;;;;;;;9.20;1.00;;;;;;5048666;28;20403;-75
2021/10/28 00:24:04;;;;;;;;;;;9.20;1.00;;;;;;5039626;28;19932;-75
2021/10/28 00:26:33;;;;;;;;;;;9.20;1.00;;;;;;5049282;28;19915;-75
2021/10/28 00:29:00;;;;;;;;;;;9.20;1.00;;;;;;5051085;28;19916;-75
2021/10/28 00:31:27;;;;;;;;;;;9.20;1.00;;;;;;5053176;28;19913;-75
2021/10/28 00:33:53;;;;;;;;;;;9.20;1.00;;;;;;5052893;22;19937;-77
2021/10/28 00:36:19;;;;;;;;;;;9.20;1.00;;;;;;5014431;28;19913;-77
2021/10/28 00:38:44;;;;;;;;;;;9.20;1.00;;;;;;5015006;28;19916;-77
2021/10/28 00:41:10;;;;;;;;;;;9.20;1.00;;;;;;5014352;28;19921;-76
2021/10/28 00:43:42;;;;;;;;;;;9.20;1.00;;;;;;5013909;28;19968;-77
2021/10/28 00:46:08;;;;;;;;;;;9.30;1.00;;;;;;5014645;28;19913;-76
2021/10/28 00:48:34;;;;;;;;;;;9.30;1.00;;;;;;5015807;28;19948;-79
2021/10/28 00:50:59;;;;;;;;;;;9.30;1.00;;;;;;5017220;28;20095;-76
2021/10/28 00:53:25;;;;;;;;;;;9.20;1.00;;;;;;5016847;28;19914;-77
2021/10/28 00:55:52;;;;;;;;;;;9.30;1.00;;;;;;5015925;28;20342;-76
2021/10/28 00:58:22;;;;;;;;;;;9.30;1.00;;;;;;5018207;28;20012;-78
2021/10/28 01:00:47;;;;;;;;;;;9.30;1.00;;;;;;5016818;28;19917;-77
2021/10/28 01:03:13;;;;;;;;;;;9.30;1.00;;;;;;5014990;28;19916;-78
2021/10/28 01:05:39;;;;;;;;;;;9.30;1.00;;;;;;5015197;28;19917;-76
2021/10/28 01:08:05;;;;;;;;;;;9.30;1.00;;;;;;5015452;28;19909;-79
2021/10/28 01:10:31;;;;;;;;;;;9.40;1.00;;;;;;5017927;28;19928;-78
2021/10/28 01:12:56;;;;;;;;;;;9.40;1.00;;;;;;5015610;28;19925;-77
2021/10/28 01:15:22;;;;;;;;;;;9.40;1.00;;;;;;5014344;28;19988;-77
2021/10/28 01:17:47;;;;;;;;;;;9.40;1.00;;;;;;5016443;28;20002;-78
2021/10/28 01:20:13;;;;;;;;;;;9.40;1.00;;;;;;5017311;28;19914;-78
2021/10/28 01:22:40;;;;;;;;;;;9.40;1.00;;;;;;5020216;28;19909;-79
2021/10/28 01:25:05;;;;;;;;;;;9.40;1.00;;;;;;5017751;28;19924;-77
2021/10/28 01:27:31;;;;;;;;;;;9.30;1.00;;;;;;5015785;28;19910;-78
2021/10/28 01:29:56;;;;;;;;;;;9.30;1.00;;;;;;5014867;28;19959;-78
2021/10/28 01:32:22;;;;;;;;;;;9.30;1.00;;;;;;5014654;28;20012;-77
2021/10/28 01:34:47;;;;;;;;;;;9.20;1.00;;;;;;4997661;28;19918;-78
2021/10/28 01:37:15;;;;;;;;;;;9.10;1.00;;;;;;5015288;28;20525;-78
2021/10/28 01:39:40;;;;;;;;;;;9.20;1.00;;;;;;5014705;28;19921;-78
2021/10/28 01:42:10;;;;;;;;;;;9.20;1.00;;;;;;5015336;28;20318;-78
2021/10/28 01:44:36;;;;;;;;;;;9.20;1.00;;;;;;5018279;28;20418;-77
2021/10/28 01:47:02;;;;;;;;;;;9.10;1.00;;;;;;5013071;28;20456;-77
2021/10/28 01:49:28;;;;;;;;;;;9.10;1.00;;;;;;5012239;28;19913;-77
2021/10/28 01:51:54;;;;;;;;;;;9.00;1.00;;;;;;5010997;28;20614;-77
2021/10/28 01:54:21;;;;;;;;;;;8.90;1.00;;;;;;5011945;28;20355;-77
2021/10/28 01:56:47;;;;;;;;;;;8.70;1.00;;;;;;5011771;28;19933;-77
2021/10/28 01:59:12;;;;;;;;;;;8.70;1.00;;;;;;5011499;28;19941;-77
2021/10/28 02:01:38;;;;;;;;;;;8.70;1.00;;;;;;5011703;28;20349;-77
2021/10/28 02:04:04;;;;;;;;;;;8.60;1.00;;;;;;5010733;28;19959;-77
2021/10/28 02:06:30;;;;;;;;;;;8.50;1.00;;;;;;5011294;28;19964;-77
2021/10/28 02:08:56;;;;;;;;;;;8.60;1.00;;;;;;4994340;28;19964;-78
2021/10/28 02:11:22;;;;;;;;;;;8.60;1.00;;;;;;5011956;28;19932;-78
2021/10/28 02:13:47;;;;;;;;;;;8.70;1.00;;;;;;4993090;28;20001;-78
2021/10/28 02:16:13;;;;;;;;;;;8.70;1.00;;;;;;5006147;28;19913;-77
2021/10/28 02:18:38;;;;;;;;;;;8.70;1.00;;;;;;4993647;28;19910;-78
2021/10/28 02:21:04;;;;;;;;;;;8.80;1.00;;;;;;5010403;28;19986;-78
2021/10/28 02:23:29;;;;;;;;;;;8.80;1.00;;;;;;5010756;28;20440;-78
2021/10/28 02:25:55;;;;;;;;;;;8.80;1.00;;;;;;5030169;28;19913;-78
2021/10/28 02:28:21;;;;;;;;;;;8.80;1.00;;;;;;5031272;28;20010;-78
2021/10/28 02:30:46;;;;;;;;;;;8.80;1.00;;;;;;5031037;28;20064;-78
2021/10/28 02:33:12;;;;;;;;;;;8.70;1.00;;;;;;5030316;28;19917;-77
2021/10/28 02:35:38;;;;;;;;;;;8.70;1.00;;;;;;5030531;28;19909;-78
2021/10/28 02:38:03;;;;;;;;;;;8.70;1.00;;;;;;5030566;28;19965;-78
2021/10/28 02:40:29;;;;;;;;;;;8.70;1.00;;;;;;5013811;28;19936;-78
2021/10/28 02:42:54;;;;;;;;;;;8.80;1.00;;;;;;5010402;28;19914;-78
2021/10/28 02:45:21;;;;;;;;;;;8.80;1.00;;;;;;5010675;28;19920;-77
2021/10/28 02:47:47;;;;;;;;;;;8.90;1.00;;;;;;5010810;28;20406;-78
2021/10/28 02:50:13;;;;;;;;;;;8.90;1.00;;;;;;4993088;28;19942;-78
2021/10/28 02:52:38;;;;;;;;;;;8.80;1.00;;;;;;5009289;28;19913;-78
2021/10/28 02:55:04;;;;;;;;;;;8.80;1.00;;;;;;5010939;28;19916;-78
2021/10/28 02:57:30;;;;;;;;;;;8.70;1.00;;;;;;5010501;28;19949;-77
2021/10/28 02:59:56;;;;;;;;;;;8.70;1.00;;;;;;5010246;28;19975;-77
2021/10/28 03:02:22;;;;;;;;;;;8.70;1.00;;;;;;5010288;28;20248;-77
2021/10/28 03:04:47;;;;;;;;;;;8.80;1.00;;;;;;5010566;28;20338;-78
2021/10/28 03:07:13;;;;;;;;;;;8.80;1.00;;;;;;5010189;28;19910;-78
2021/10/28 03:09:38;;;;;;;;;;;8.90;1.00;;;;;;4993057;28;19920;-78
2021/10/28 03:12:05;;;;;;;;;;;8.90;1.00;;;;;;5009596;28;19914;-78
2021/10/28 03:14:40;;;;;;;;;;;9.00;1.00;;;;;;5010444;28;20035;-78
2021/10/28 03:19:48;;;;;;;;;;;9.00;1.00;;;;;;5010425;28;19959;-78
2021/10/28 03:27:42;;;;;;;;;;;8.80;1.00;;;;;;5030224;28;19916;-77
2021/10/28 03:30:08;;;;;;;;;;;8.70;1.00;;;;;;5029652;28;19996;-77
2021/10/28 03:32:34;;;;;;;;;;;8.70;1.00;;;;;;5029177;28;20012;-77
2021/10/28 03:35:00;;;;;;;;;;;8.70;1.00;;;;;;5029642;28;20023;-78
2021/10/28 03:40:20;;;;;;;;;;;8.80;1.00;;;;;;5017972;28;19909;-78
2021/10/28 04:30:24;;;;;;;;;;;8.60;1.00;;;;;;5009624;28;19931;-79
2021/10/28 04:32:51;;;;;;;;;;;8.60;1.00;;;;;;4991121;28;19917;-78
2021/10/28 04:35:17;;;;;;;;;;;8.50;1.00;;;;;;5009306;28;19914;-77
2021/10/28 04:37:44;;;;;;;;;;;8.50;1.00;;;;;;5008787;28;20327;-78
2021/10/28 04:40:10;;;;;;;;;;;8.50;1.00;;;;;;5008506;28;20317;-77
2021/10/28 04:42:35;;;;;;;;;;;8.60;1.00;;;;;;5002817;28;19914;-77
2021/10/28 04:45:01;;;;;;;;;;;8.50;1.00;;;;;;5007345;28;20619;-78
2021/10/28 04:47:27;;;;;;;;;;;8.50;1.00;;;;;;5007738;28;19929;-78
2021/10/28 04:49:52;;;;;;;;;;;8.50;1.00;;;;;;5006038;28;19920;-78
2021/10/28 04:52:21;;;;;;;;;;;8.50;1.00;;;;;;5004774;28;19996;-77
2021/10/28 04:54:46;;;;;;;;;;;8.50;1.00;;;;;;5006052;28;19940;-78
2021/10/28 04:57:12;;;;;;;;;;;8.60;1.00;;;;;;5006285;28;19913;-78
2021/10/28 04:59:37;;;;;;;;;;;8.60;1.00;;;;;;5006397;28;19913;-78
2021/10/28 05:02:03;;;;;;;;;;;8.60;1.00;;;;;;5005978;28;20516;-79
2021/10/28 05:04:28;;;;;;;;;;;8.60;1.00;;;;;;5006401;28;19915;-78
2021/10/28 05:06:54;;;;;;;;;;;8.60;1.00;;;;;;5005008;28;20247;-78
2021/10/28 05:09:26;;;;;;;;;;;8.60;1.00;;;;;;5006028;28;19925;-78
2021/10/28 05:11:52;;;;;;;;;;;8.70;1.00;;;;;;5003353;28;19920;-79
2021/10/28 05:14:17;;;;;;;;;;;8.70;1.00;;;;;;5005951;28;19914;-80
2021/10/28 05:16:43;;;;;;;;;;;8.70;1.00;;;;;;5011432;28;20199;-86
2021/10/28 05:19:08;;;;;;;;;;;8.80;1.00;;;;;;5010207;28;20389;-80
2021/10/28 05:21:34;;;;;;;;;;;8.80;1.00;;;;;;5010968;28;20448;-77
2021/10/28 05:23:59;;;;;;;;;;;8.80;1.00;;;;;;5013304;28;19917;-78
2021/10/28 05:26:25;;;;;;;;;;;8.90;1.00;;;;;;5011944;28;20011;-78
2021/10/28 05:28:50;;;;;;;;;;;8.80;1.00;;;;;;5010872;28;19910;-78
2021/10/28 05:31:28;;;;;;;;;;;8.90;1.00;;;;;;5010081;28;20013;-78
2021/10/28 05:33:53;;;;;;;;;;;8.90;1.00;;;;;;5009024;28;19924;-77
2021/10/28 05:36:19;;;;;;;;;;;8.80;1.00;;;;;;5008379;28;20206;-76
2021/10/28 05:38:44;;;;;;;;;;;8.80;1.00;;;;;;5010567;28;19917;-80
2021/10/28 05:41:10;;;;;;;;;;;8.80;1.00;;;;;;4991996;28;19928;-78
2021/10/28 05:43:35;;;;;;;;;;;8.80;1.00;;;;;;5003460;28;19961;-78
2021/10/28 05:46:01;;;;;;;;;;;8.80;1.00;;;;;;5009308;28;19913;-77
2021/10/28 05:48:26;;;;;;;;;;;8.80;1.00;;;;;;5004586;28;20020;-78
2021/10/28 05:50:52;;;;;;;;;;;8.80;1.00;;;;;;5001229;28;19910;-76
2021/10/28 05:53:26;;;;;;;;;;;8.90;1.00;;;;;;5003625;28;20346;-76
2021/10/28 05:55:52;;;;;;;;;;;8.80;1.00;;;;;;5000199;28;19917;-76
2021/10/28 05:58:17;;;;;;;;;;;8.80;1.00;;;;;;5004875;28;19920;-76
2021/10/28 06:00:43;;;;;;;;;;;8.80;1.00;;;;;;5005681;28;20400;-76
2021/10/28 06:03:09;;;;;;;;;;;8.80;1.00;;;;;;5004636;28;19914;-76
2021/10/28 06:05:34;;;;;;;;;;;8.80;1.00;;;;;;5002619;28;19920;-76
2021/10/28 06:08:00;;;;;;;;;;;8.80;1.00;;;;;;5002024;28;19940;-77
2021/10/28 06:10:25;;;;;;;;;;;8.80;1.00;;;;;;5002209;28;19939;-77
2021/10/28 06:12:53;;;;;;;;;;;8.80;1.00;;;;;;5007643;28;19920;-77
2021/10/28 06:15:20;;;;;;;;;;;8.80;1.00;;;;;;5002220;28;20007;-76
2021/10/28 06:17:55;;;;;;;;;;;8.90;1.00;;;;;;5004100;28;19965;-77
2021/10/28 06:20:21;;;;;;;;;;;8.80;1.00;;;;;;4984863;28;20019;-75
2021/10/28 06:22:47;;;;;;;;;;;8.80;1.00;;;;;;5004540;28;19924;-75
2021/10/28 06:25:12;;;;;;;;;;;8.60;1.00;;;;;;5004724;28;20319;-76
2021/10/28 06:28:15;;;;;;;;;;;8.50;1.00;;;;;;5009265;28;20293;-77
2021/10/28 06:30:41;;;;;;;;;;;8.60;1.00;;;;;;5006060;28;20017;-74
2021/10/28 06:33:13;;;;;;;;;;;8.60;1.00;;;;;;5000875;28;20322;-75
2021/10/28 06:35:42;;;;;;;;;;;8.70;1.00;;;;;;5001964;28;20008;-75
2021/10/28 06:38:07;;;;;;;;;;;8.70;1.00;;;;;;5000722;28;19917;-76
2021/10/28 06:40:33;;;;;;;;;;;8.60;1.00;;;;;;5004097;28;20072;-77
2021/10/28 06:42:59;;;;;;;;;;;8.60;1.00;;;;;;5007043;28;20008;-76
2021/10/28 06:45:24;;;;;;;;;;;8.70;1.00;;;;;;5008161;28;19949;-75
2021/10/28 06:47:50;;;;;;;;;;;8.70;1.00;;;;;;5013322;28;19996;-77
2021/10/28 06:50:18;;;;;;;;;;;8.80;1.00;;;;;;5011995;28;19968;-76
2021/10/28 06:55:40;;;;;;;;;;;8.90;1.00;;;;;;5011227;28;20301;-76
2021/10/28 07:03:35;;;;;;;;;;;8.80;1.00;;;;;;5010056;28;19995;-78
2021/10/28 07:06:09;;;;;;;;;;;8.90;1.00;;;;;;4994454;28;19925;-77
2021/10/28 07:08:37;;;;;;;;;;;9.00;1.00;;;;;;5013204;28;19936;-76
2021/10/28 07:11:07;;;;;;;;;;;9.00;1.00;;;;;;4994914;28;20335;-77
2021/10/28 07:13:34;;;;;;;;;;;9.10;1.00;;;;;;5009977;28;19921;-76
2021/10/28 07:16:10;;;;;;;;;;;9.10;1.00;;;;;;5010472;28;20255;-75
2021/10/28 07:24:26;;;;;;;;;;;9.20;1.00;;;;;;4974715;28;20366;-76
2021/10/28 07:27:16;;;;;;;;;;;9.20;1.00;;;;;;5011678;28;19913;-76
2021/10/28 07:32:35;;;;;;;;;;;9.20;1.00;;;;;;5009578;28;19924;-76
2021/10/28 07:57:22;;;;;;;;;;;9.70;1.00;;;;;;5010883;28;19921;-77
2021/10/28 08:05:24;;;;;;;;;;;9.80;1.00;;;;;;5010778;28;19940;-77
2021/10/28 08:18:51;;;;;;;;;;;10.30;1.00;;;;;;5005167;28;19917;-76
2021/10/28 08:31:43;;;;;;;;;;;10.60;1.00;;;;;;5377671;22;19929;-77
2021/10/28 08:34:09;;;;;;;;;;;10.70;1.00;;;;;;5011846;28;19914;-78
2021/10/28 08:36:39;;;;;;;;;;;10.80;1.00;;;;;;4993988;28;20267;-76
2021/10/28 08:39:05;;;;;;;;;;;11.00;1.00;;;;;;4991232;28;19951;-77
2021/10/28 08:41:32;;;;;;;;;;;11.10;99.90;;;;;;5011982;28;20367;-77
2021/10/28 08:43:58;;;;;;;;;;;11.30;1.00;;;;;;4991547;28;20004;-77
2021/10/28 08:46:26;;;;;;;;;;;11.20;99.90;;;;;;5010278;28;19918;-77
2021/10/28 08:48:57;;;;;;;;;;;11.30;1.00;;;;;;4993800;28;19926;-77
2021/10/28 08:51:46;;;;;;;;;;;11.30;1.00;;;;;;5013710;28;19914;-77
2021/10/28 09:24:35;;;;;;;;;;;13.30;75.80;;;;;;5002721;28;20787;-76
2021/10/28 09:32:28;;;;;;;;;;;16.40;1.00;;;;;;5135716;22;20526;-78
2021/10/28 09:43:36;;;;;;;;;;;14.80;1.00;;;;;;5047526;28;20000;-78
2021/10/28 09:51:50;;;;;;;;;;;14.70;1.00;;;;;;5051418;28;19920;-77
2021/10/28 09:54:32;;;;;;;;;;;14.50;1.00;;;;;;5052162;28;20663;-76
2021/10/28 09:59:45;;;;;;;;;;;14.60;1.00;;;;;;5052789;28;20349;-78
2021/10/28 10:02:19;;;;;;;;;;;14.90;1.00;;;;;;5050403;28;19920;-78
2021/10/28 10:04:46;;;;;;;;;;;15.30;1.00;;;;;;5051562;28;20015;-78
2021/10/28 10:07:13;;;;;;;;;;;15.60;99.90;;;;;;5051142;28;19921;-77
2021/10/28 10:09:39;;;;;;;;;;;15.70;99.90;;;;;;5051992;28;19920;-78
2021/10/28 10:12:05;;;;;;;;;;;15.80;99.90;;;;;;5050163;28;19916;-77
2021/10/28 10:14:33;;;;;;;;;;;16.00;99.90;;;;;;5033102;28;19912;-77
2021/10/28 10:16:58;;;;;;;;;;;15.70;99.90;;;;;;5051342;28;19913;-76
2021/10/28 10:19:35;;;;;;;;;;;16.00;99.90;;;;;;5051634;28;19920;-78
2021/10/28 10:22:15;;;;;;;;;;;16.50;99.90;;;;;;5050484;28;19970;-77
2021/10/28 10:25:01;;;;;;;;;;;16.60;99.90;;;;;;5051091;28;19948;-79
2021/10/28 11:30:19;;;;;;;;;;;23.30;99.90;;;;;;5027629;28;19917;-76
2021/10/28 11:33:16;;;;;;;;;;;23.80;99.90;;;;;;5032020;28;19946;-77
2021/10/28 13:06:20;;;;;;;;;;;19.50;99.90;;;;;;5067081;28;19947;-70
2021/10/28 14:24:40;;;;;;;;;;;16.00;99.90;;;;;;5069913;28;19985;-72
2021/10/28 15:00:55;;;;;;;;;;;15.10;99.90;;;;;;5069487;28;19978;-74
2021/10/28 15:29:52;;;;;;;;;;;14.60;1.00;;;;;;5061401;28;20483;-73
2021/10/28 15:48:45;;;;;;;;;;;14.00;1.00;;;;;;5068714;28;19920;-73
2021/10/28 16:23:17;;;;;;;;;;;12.90;1.00;;;;;;5014638;28;19916;-72
2021/10/28 16:25:42;;;;;;;;;;;12.80;1.00;;;;;;5067877;28;19920;-73
2021/10/28 16:28:08;;;;;;;;;;;12.70;1.00;;;;;;5068537;28;19920;-70
2021/10/28 16:30:34;;;;;;;;;;;12.60;99.90;;;;;;5067859;28;19957;-72
2021/10/28 16:32:59;;;;;;;;;;;12.40;1.00;;;;;;5066930;28;19912;-71
2021/10/28 16:35:25;;;;;;;;;;;12.30;99.90;;;;;;5067846;28;20310;-71
2021/10/28 16:37:51;;;;;;;;;;;12.20;1.00;;;;;;5066917;28;20038;-72
2021/10/28 16:40:17;;;;;;;;;;;12.10;99.90;;;;;;5063858;28;19912;-71
2021/10/28 16:42:42;;;;;;;;;;;12.10;99.90;;;;;;5067179;28;19924;-71
2021/10/28 16:45:09;;;;;;;;;;;12.00;1.00;;;;;;5049389;28;19921;-71
2021/10/28 16:47:35;;;;;;;;;;;11.90;1.00;;;;;;5061320;28;20003;-71
2021/10/28 16:50:00;;;;;;;;;;;11.80;1.00;;;;;;5068216;28;20260;-72
2021/10/28 16:52:26;;;;;;;;;;;11.80;99.90;;;;;;5067188;28;19916;-72
2021/10/28 16:54:51;;;;;;;;;;;11.70;99.90;;;;;;5067942;28;20003;-73
2021/10/28 16:57:17;;;;;;;;;;;11.70;99.90;;;;;;5067512;28;19930;-71
2021/10/28 16:59:42;;;;;;;;;;;11.60;99.90;;;;;;5067431;28;19912;-72
2021/10/28 17:02:08;;;;;;;;;;;11.60;99.90;;;;;;5067292;28;20272;-71
2021/10/28 17:04:34;;;;;;;;;;;11.50;1.00;;;;;;5067176;28;19924;-71
2021/10/28 17:06:59;;;;;;;;;;;11.50;1.00;;;;;;5067199;28;20225;-71
2021/10/28 17:09:25;;;;;;;;;;;11.50;1.00;;;;;;5067490;28;20376;-72
2021/10/28 17:11:51;;;;;;;;;;;11.40;1.00;;;;;;5070959;28;19912;-74
2021/10/28 17:14:16;;;;;;;;;;;11.40;1.00;;;;;;5070892;28;19960;-73
2021/10/28 17:16:46;;;;;;;;;;;11.30;1.00;;;;;;5072095;28;19909;-72
2021/10/28 17:19:13;;;;;;;;;;;11.30;1.00;;;;;;5071120;28;19913;-72
2021/10/28 17:21:38;;;;;;;;;;;11.30;1.00;;;;;;5071527;28;20276;-73
2021/10/28 17:24:07;;;;;;;;;;;11.10;1.00;;;;;;5071020;28;19916;-71
2021/10/28 17:26:33;;;;;;;;;;;11.00;1.00;;;;;;5070980;28;19983;-72
2021/10/28 17:29:01;;;;;;;;;;;10.90;1.00;;;;;;5071915;28;19913;-73
2021/10/28 17:31:32;;;;;;;;;;;10.80;1.00;;;;;;5070628;28;19916;-73
2021/10/28 17:33:58;;;;;;;;;;;10.70;1.00;;;;;;5070477;28;19920;-73
2021/10/28 17:36:24;;;;;;;;;;;10.60;1.00;;;;;;5070601;28;19919;-72
2021/10/28 17:38:50;;;;;;;;;;;10.60;1.00;;;;;;5068892;28;19916;-72
2021/10/28 17:41:17;;;;;;;;;;;10.50;1.00;;;;;;5070882;28;19982;-72
2021/10/28 17:43:45;;;;;;;;;;;10.40;1.00;;;;;;5070753;28;19917;-72
2021/10/28 17:46:13;;;;;;;;;;;10.30;1.00;;;;;;5069100;28;19924;-71
2021/10/28 17:48:38;;;;;;;;;;;10.30;1.00;;;;;;5070761;28;19921;-72
2021/10/28 17:51:04;;;;;;;;;;;10.20;1.00;;;;;;5070610;28;19939;-73
2021/10/28 17:53:29;;;;;;;;;;;10.20;1.00;;;;;;5069583;28;19917;-72
2021/10/28 17:55:55;;;;;;;;;;;10.00;1.00;;;;;;5071496;28;20590;-72
2021/10/28 17:58:20;;;;;;;;;;;10.00;1.00;;;;;;5070521;28;19913;-73
2021/10/28 18:00:46;;;;;;;;;;;9.90;1.00;;;;;;5070538;28;19920;-71
2021/10/28 18:03:11;;;;;;;;;;;9.80;1.00;;;;;;5070336;28;20357;-72
2021/10/28 18:05:38;;;;;;;;;;;9.70;1.00;;;;;;5061854;28;19921;-73
2021/10/28 18:08:05;;;;;;;;;;;9.70;1.00;;;;;;5070461;28;20052;-73
2021/10/28 18:10:31;;;;;;;;;;;9.60;1.00;;;;;;5070412;28;19974;-72
2021/10/28 18:12:56;;;;;;;;;;;9.50;1.00;;;;;;5069912;28;19916;-73
2021/10/28 18:15:24;;;;;;;;;;;9.50;1.00;;;;;;5070883;28;19917;-73
2021/10/28 18:17:50;;;;;;;;;;;9.50;1.00;;;;;;5070206;28;19978;-73
2021/10/28 18:20:15;;;;;;;;;;;9.40;1.00;;;;;;5069415;28;20349;-73
2021/10/28 18:22:43;;;;;;;;;;;9.30;1.00;;;;;;5068291;28;19988;-72
2021/10/28 18:25:10;;;;;;;;;;;9.30;1.00;;;;;;5070187;28;19920;-72
2021/10/28 18:27:36;;;;;;;;;;;9.30;1.00;;;;;;5070424;28;19920;-71
2021/10/28 18:30:02;;;;;;;;;;;9.30;1.00;;;;;;5069950;28;19974;-72
2021/10/28 18:32:28;;;;;;;;;;;9.20;1.00;;;;;;5069729;28;20360;-73
2021/10/28 18:34:53;;;;;;;;;;;9.20;1.00;;;;;;5069954;28;19912;-72
2021/10/28 18:37:20;;;;;;;;;;;9.10;1.00;;;;;;5069706;28;19919;-71
2021/10/28 18:39:45;;;;;;;;;;;9.00;1.00;;;;;;5069149;28;19920;-71
2021/10/28 18:42:11;;;;;;;;;;;9.00;1.00;;;;;;5069478;28;19920;-71
2021/10/28 18:44:37;;;;;;;;;;;8.90;1.00;;;;;;5070136;28;20226;-71
2021/10/28 18:47:02;;;;;;;;;;;8.80;1.00;;;;;;5052281;28;20006;-71
2021/10/28 18:49:28;;;;;;;;;;;8.80;1.00;;;;;;5070207;28;19956;-72
2021/10/28 18:51:53;;;;;;;;;;;8.80;1.00;;;;;;5067868;28;19917;-75
2021/10/28 18:54:20;;;;;;;;;;;8.80;1.00;;;;;;5070187;28;19960;-72
2021/10/28 18:56:46;;;;;;;;;;;8.70;1.00;;;;;;5069802;28;20257;-71
2021/10/28 18:59:12;;;;;;;;;;;8.60;1.00;;;;;;5069107;28;19912;-72
2021/10/28 19:01:38;;;;;;;;;;;8.60;1.00;;;;;;5069395;28;20317;-72
2021/10/28 19:04:03;;;;;;;;;;;8.50;1.00;;;;;;5068483;28;19974;-71
2021/10/28 19:06:29;;;;;;;;;;;8.50;1.00;;;;;;5068686;28;19921;-73
2021/10/28 19:08:55;;;;;;;;;;;8.50;1.00;;;;;;5069643;28;19932;-71
2021/10/28 19:11:23;;;;;;;;;;;8.40;1.00;;;;;;5068983;28;20103;-71
2021/10/28 19:13:49;;;;;;;;;;;8.40;1.00;;;;;;5060364;28;19913;-71
2021/10/28 19:16:15;;;;;;;;;;;8.40;1.00;;;;;;5069050;28;20434;-73
2021/10/28 19:18:42;;;;;;;;;;;8.40;1.00;;;;;;5068978;28;19921;-72
2021/10/28 19:21:08;;;;;;;;;;;8.30;1.00;;;;;;5068539;28;20151;-72
2021/10/28 19:23:34;;;;;;;;;;;8.30;1.00;;;;;;5068289;28;19916;-71
2021/10/28 19:25:59;;;;;;;;;;;8.30;1.00;;;;;;5069480;28;20470;-72
2021/10/28 19:28:25;;;;;;;;;;;8.30;1.00;;;;;;5069391;28;19917;-73
2021/10/28 19:31:17;;;;;;;;;;;8.20;1.00;;;;;;5050948;28;20322;-72
2021/10/28 19:36:13;;;;;;;;;;;8.10;1.00;;;;;;5068631;28;19973;-72
2021/10/28 19:38:53;;;;;;;;;;;8.10;1.00;;;;;;5066940;28;19939;-73
2021/10/28 19:41:45;;;;;;;;;;;8.10;1.00;;;;;;5068734;28;19923;-72
2021/10/28 19:46:51;;;;;;;;;;;8.00;1.00;;;;;;5061094;28;19959;-72
2021/10/28 19:49:16;;;;;;;;;;;8.00;1.00;;;;;;5068898;28;19913;-73
2021/10/28 19:51:43;;;;;;;;;;;7.90;1.00;;;;;;5068255;28;19994;-72
2021/10/28 19:54:11;;;;;;;;;;;7.90;1.00;;;;;;5068114;28;19958;-73
2021/10/28 19:56:37;;;;;;;;;;;7.90;1.00;;;;;;5068432;28;19916;-73
2021/10/28 19:59:05;;;;;;;;;;;7.90;1.00;;;;;;5069054;28;19915;-72
2021/10/28 20:04:12;;;;;;;;;;;8.00;1.00;;;;;;5067646;28;20294;-72
2021/10/28 20:20:20;;;;;;;;;;;8.20;1.00;;;;;;5068149;28;19916;-71
2021/10/28 20:22:46;;;;;;;;;;;8.20;1.00;;;;;;5051879;28;19926;-73
2021/10/28 20:25:14;;;;;;;;;;;8.30;1.00;;;;;;5068879;28;19908;-73
2021/10/28 20:27:41;;;;;;;;;;;8.40;1.00;;;;;;5069094;28;19912;-73
2021/10/28 20:30:07;;;;;;;;;;;8.50;1.00;;;;;;5068599;28;19919;-72
2021/10/28 20:32:34;;;;;;;;;;;8.50;1.00;;;;;;5066398;28;19908;-73
2021/10/28 20:37:34;;;;;;;;;;;8.70;1.00;;;;;;5068559;28;19909;-73
2021/10/28 20:40:00;;;;;;;;;;;8.70;1.00;;;;;;5068012;28;19912;-73
2021/10/28 20:42:36;;;;;;;;;;;8.70;1.00;;;;;;5067350;28;20296;-73
2021/10/28 20:45:04;;;;;;;;;;;8.80;1.00;;;;;;5069706;28;20365;-72
2021/10/28 20:47:30;;;;;;;;;;;8.80;1.00;;;;;;5072557;28;20042;-73
2021/10/28 20:49:55;;;;;;;;;;;8.80;1.00;;;;;;5072681;28;20011;-72
2021/10/28 20:52:21;;;;;;;;;;;8.90;1.00;;;;;;5071231;28;19908;-72
2021/10/28 20:54:46;;;;;;;;;;;8.90;1.00;;;;;;5072189;28;20054;-73
2021/10/28 20:57:12;;;;;;;;;;;8.90;1.00;;;;;;5073168;28;19955;-72
2021/10/28 20:59:37;;;;;;;;;;;9.00;1.00;;;;;;5072243;28;19912;-72
2021/10/28 21:02:03;;;;;;;;;;;9.00;1.00;;;;;;5071136;28;19920;-72
2021/10/28 21:04:28;;;;;;;;;;;8.90;1.00;;;;;;5070752;28;19915;-73
2021/10/28 21:06:54;;;;;;;;;;;8.80;1.00;;;;;;5069773;28;20323;-73
2021/10/28 21:09:19;;;;;;;;;;;8.70;1.00;;;;;;5070983;28;20387;-71
2021/10/28 21:11:48;;;;;;;;;;;8.50;1.00;;;;;;5070138;28;19930;-71
2021/10/28 21:14:14;;;;;;;;;;;8.30;1.00;;;;;;5070692;28;20064;-71
2021/10/28 21:16:40;;;;;;;;;;;8.30;1.00;;;;;;5065562;28;19912;-71
2021/10/28 21:19:05;;;;;;;;;;;8.20;1.00;;;;;;5071467;28;19923;-71
2021/10/28 21:21:32;;;;;;;;;;;8.20;1.00;;;;;;5070264;28;19917;-72
2021/10/28 21:23:57;;;;;;;;;;;8.30;1.00;;;;;;5071423;28;19908;-72
2021/10/28 21:26:23;;;;;;;;;;;8.30;1.00;;;;;;5072345;28;19916;-72
2021/10/28 21:28:49;;;;;;;;;;;8.40;1.00;;;;;;5072142;28;19985;-71
2021/10/28 21:31:15;;;;;;;;;;;8.40;1.00;;;;;;5071826;28;19908;-72
2021/10/28 21:33:41;;;;;;;;;;;8.40;1.00;;;;;;5071026;28;19908;-71
2021/10/28 21:36:07;;;;;;;;;;;8.40;1.00;;;;;;5071525;28;19936;-74
2021/10/28 21:38:33;;;;;;;;;;;8.40;1.00;;;;;;5071814;28;19947;-72
2021/10/28 21:40:59;;;;;;;;;;;8.40;1.00;;;;;;5071217;28;19999;-72
2021/10/28 21:43:24;;;;;;;;;;;8.50;1.00;;;;;;5070964;28;20433;-72
2021/10/28 21:45:51;;;;;;;;;;;8.50;1.00;;;;;;5071469;28;19915;-72
2021/10/28 21:48:17;;;;;;;;;;;8.50;1.00;;;;;;5072254;28;19912;-72
2021/10/28 21:50:43;;;;;;;;;;;8.50;1.00;;;;;;5071183;28;19962;-72
2021/10/28 21:53:12;;;;;;;;;;;8.50;1.00;;;;;;5070518;28;19916;-71
2021/10/28 21:58:39;;;;;;;;;;;8.50;1.00;;;;;;5071164;28;19966;-72
2021/10/28 22:25:53;;;;;;;;;;;8.10;1.00;;;;;;5071411;28;19919;-72
2021/10/28 22:28:18;;;;;;;;;;;8.10;1.00;;;;;;5071387;28;19908;-72
2021/10/28 22:30:44;;;;;;;;;;;8.10;1.00;;;;;;5070634;28;19990;-72
2021/10/28 22:33:09;;;;;;;;;;;8.10;1.00;;;;;;5068922;28;20339;-72
2021/10/28 22:35:45;;;;;;;;;;;8.10;1.00;;;;;;5070340;28;19954;-72
2021/10/28 22:38:11;;;;;;;;;;;8.10;1.00;;;;;;5070867;28;20485;-72
2021/10/28 22:40:38;;;;;;;;;;;8.20;1.00;;;;;;5070307;28;19920;-71
2021/10/28 22:43:08;;;;;;;;;;;8.10;1.00;;;;;;5069220;28;19920;-72
2021/10/28 22:45:34;;;;;;;;;;;8.20;1.00;;;;;;5070482;28;20008;-73
2021/10/28 22:48:00;;;;;;;;;;;8.20;1.00;;;;;;5070892;28;19935;-71
2021/10/28 22:50:26;;;;;;;;;;;8.20;1.00;;;;;;5070472;28;20430;-71
2021/10/28 22:52:53;;;;;;;;;;;8.20;1.00;;;;;;5069605;28;19958;-71
2021/10/28 22:55:19;;;;;;;;;;;8.20;1.00;;;;;;5070090;28;20018;-71
2021/10/28 22:57:53;;;;;;;;;;;8.20;1.00;;;;;;5070596;28;19909;-71
2021/10/28 23:00:46;;;;;;;;;;;8.00;1.00;;;;;;5070082;28;19915;-71
2021/10/28 23:03:15;;;;;;;;;;;7.90;1.00;;;;;;5068871;28;19988;-71
2021/10/28 23:08:46;;;;;;;;;;;7.80;1.00;;;;;;5069638;28;20007;-71
2021/10/28 23:14:12;;;;;;;;;;;7.80;1.00;;;;;;5069522;28;20424;-74
2021/10/28 23:22:01;;;;;;;;;;;7.60;1.00;;;;;;5044200;28;19974;-71
2021/10/28 23:24:26;;;;;;;;;;;7.50;1.00;;;;;;5069450;28;19931;-72
2021/10/28 23:26:52;;;;;;;;;;;7.40;1.00;;;;;;5070315;28;19908;-71
2021/10/28 23:29:17;;;;;;;;;;;7.50;1.00;;;;;;5069474;28;19912;-71
2021/10/28 23:31:43;;;;;;;;;;;7.40;1.00;;;;;;5069716;28;19996;-71
2021/10/28 23:34:10;;;;;;;;;;;7.30;1.00;;;;;;5069243;28;19909;-73
2021/10/28 23:36:36;;;;;;;;;;;7.20;1.00;;;;;;5069199;28;19920;-71
2021/10/28 23:39:02;;;;;;;;;;;7.20;1.00;;;;;;5069576;28;19939;-71
2021/10/28 23:41:27;;;;;;;;;;;7.10;1.00;;;;;;5069407;28;19917;-71
2021/10/28 23:43:53;;;;;;;;;;;7.10;1.00;;;;;;5067962;28;19928;-72
2021/10/28 23:46:18;;;;;;;;;;;7.20;1.00;;;;;;5067880;28;20268;-71
2021/10/28 23:48:44;;;;;;;;;;;7.20;1.00;;;;;;5069822;28;19912;-71
2021/10/28 23:51:09;;;;;;;;;;;7.20;1.00;;;;;;5069372;28;19986;-72
2021/10/28 23:53:35;;;;;;;;;;;7.10;1.00;;;;;;5068228;28;19920;-71
2021/10/28 23:56:00;;;;;;;;;;;7.10;1.00;;;;;;5069743;28;19919;-71
2021/10/28 23:58:26;;;;;;;;;;;7.10;1.00;;;;;;5069825;28;20365;-72
